createdAt,value
2018-12-25T00:01:33.857Z,4.40
2018-12-25T00:10:22.176Z,4.40
2018-12-25T00:13:08.786Z,4.40
2018-12-25T00:22:13.610Z,4.40
2018-12-25T00:31:15.803Z,4.40
2018-12-25T00:40:42.377Z,4.40
2018-12-25T00:43:29.883Z,4.40
2018-12-25T00:46:25.237Z,4.40
2018-12-25T00:52:37.966Z,4.40
2018-12-25T01:01:51.403Z,4.40
2018-12-25T01:04:38.052Z,4.40
2018-12-25T01:13:42.361Z,4.30
2018-12-25T01:16:29.020Z,4.30
2018-12-25T01:19:14.200Z,4.40
2018-12-25T01:38:06.169Z,4.30
2018-12-25T01:44:18.040Z,4.30
2018-12-25T02:02:57.254Z,4.40
2018-12-25T02:21:28.800Z,4.40
2018-12-25T02:33:46.154Z,4.50
2018-12-25T02:52:40.270Z,4.50
2018-12-25T03:05:13.249Z,4.40
2018-12-25T03:27:31.322Z,4.40
2018-12-25T03:39:52.641Z,4.40
2018-12-25T03:58:39.575Z,4.30
2018-12-25T04:01:29.364Z,4.30
2018-12-25T04:04:15.867Z,4.30
2018-12-25T04:07:01.383Z,4.40
2018-12-25T04:12:43.889Z,4.30
2018-12-25T04:15:29.244Z,4.30
2018-12-25T04:44:02.053Z,4.30
2018-12-25T05:02:48.219Z,4.40
2018-12-25T05:21:27.231Z,4.40
2018-12-25T06:27:55.807Z,4.40
2018-12-25T06:46:06.422Z,4.40
2018-12-25T06:52:02.732Z,4.40
2018-12-25T07:20:36.846Z,4.50
2018-12-25T08:08:41.020Z,4.20
2018-12-25T08:36:31.307Z,4.40
2018-12-25T09:15:08.021Z,4.70
2018-12-25T09:27:19.347Z,4.70
2018-12-25T10:27:38.915Z,5.60
2018-12-25T10:30:27.362Z,5.70
2018-12-25T10:45:11.520Z,6.10
2018-12-25T11:13:40.552Z,6.40
2018-12-25T11:16:27.485Z,6.40
2018-12-25T11:19:13.705Z,6.50
2018-12-25T11:31:37.351Z,6.50
2018-12-25T11:34:26.478Z,6.50
2018-12-25T11:37:13.466Z,6.50
2018-12-25T11:40:18.456Z,6.50
2018-12-25T11:58:48.904Z,6.70
2018-12-25T12:01:36.763Z,7.00
2018-12-25T12:04:23.804Z,7.10
2018-12-25T12:10:28.191Z,7.30
2018-12-25T12:13:15.195Z,7.20
2018-12-25T12:19:16.126Z,7.10
2018-12-25T12:34:49.889Z,7.00
2018-12-25T12:53:41.643Z,6.70
2018-12-25T12:56:12.972Z,6.70
2018-12-25T12:58:46.286Z,6.70
2018-12-25T13:01:17.573Z,6.80
2018-12-25T13:03:48.878Z,6.90
2018-12-25T13:06:20.149Z,6.90
2018-12-25T13:08:52.506Z,6.90
2018-12-25T13:11:23.843Z,6.80
2018-12-25T13:13:55.183Z,6.90
2018-12-25T13:16:26.434Z,6.90
2018-12-25T13:18:57.881Z,7.00
2018-12-25T13:21:29.219Z,6.90
2018-12-25T13:24:01.440Z,6.80
2018-12-25T13:26:32.701Z,6.80
2018-12-25T13:29:03.944Z,6.80
2018-12-25T13:31:35.169Z,6.80
2018-12-25T13:34:06.758Z,6.70
2018-12-25T13:36:38.464Z,6.70
2018-12-25T13:39:09.762Z,6.50
2018-12-25T13:41:41.087Z,6.50
2018-12-25T13:44:13.639Z,6.50
2018-12-25T13:46:51.548Z,6.50
2018-12-25T13:49:19.053Z,6.40
2018-12-25T13:51:51.895Z,6.40
2018-12-25T13:54:23.340Z,6.40
2018-12-25T13:56:54.613Z,6.30
2018-12-25T13:59:26.532Z,6.20
2018-12-25T14:01:57.750Z,6.20
2018-12-25T14:04:29.130Z,6.20
2018-12-25T14:07:01.360Z,6.20
2018-12-25T14:09:33.056Z,6.20
2018-12-25T14:12:04.786Z,6.20
2018-12-25T14:14:36.101Z,6.10
2018-12-25T14:17:07.618Z,6.10
2018-12-25T14:19:38.954Z,6.10
2018-12-25T14:22:11.906Z,6.10
2018-12-25T14:24:43.215Z,6.10
2018-12-25T14:27:14.555Z,6.00
2018-12-25T14:29:45.812Z,6.00
2018-12-25T14:32:17.184Z,6.10
2018-12-25T14:34:48.601Z,6.00
2018-12-25T14:37:19.950Z,6.00
2018-12-25T14:39:51.203Z,6.00
2018-12-25T14:42:22.570Z,6.00
2018-12-25T14:44:54.760Z,5.90
2018-12-25T14:47:27.124Z,5.90
2018-12-25T14:49:58.555Z,5.90
2018-12-25T14:52:30.697Z,5.90
2018-12-25T14:55:02.058Z,5.90
2018-12-25T14:57:33.285Z,5.90
2018-12-25T15:00:05.212Z,5.80
2018-12-25T15:02:36.762Z,5.80
2018-12-25T15:05:08.346Z,5.80
2018-12-25T15:07:40.583Z,5.80
2018-12-25T15:10:11.896Z,5.80
2018-12-25T15:12:43.290Z,5.80
2018-12-25T15:15:14.636Z,5.80
2018-12-25T15:17:46.252Z,5.80
2018-12-25T15:20:17.573Z,5.80
2018-12-25T15:22:49.358Z,5.70
2018-12-25T15:25:20.639Z,5.70
2018-12-25T15:27:51.944Z,5.70
2018-12-25T15:30:23.219Z,5.70
2018-12-25T15:32:54.679Z,5.70
2018-12-25T15:35:26.754Z,5.70
2018-12-25T15:37:58.020Z,5.70
2018-12-25T15:40:29.755Z,5.70
2018-12-25T15:43:01.108Z,5.70
2018-12-25T15:45:33.482Z,5.60
2018-12-25T15:48:05.141Z,5.60
2018-12-25T15:50:36.492Z,5.70
2018-12-25T15:53:07.809Z,5.70
2018-12-25T15:55:39.179Z,5.70
2018-12-25T15:58:10.909Z,5.70
2018-12-25T16:00:42.234Z,5.70
2018-12-25T16:03:13.492Z,5.70
2018-12-25T16:05:44.819Z,5.70
2018-12-25T16:08:16.129Z,5.70
2018-12-25T16:10:47.365Z,5.60
2018-12-25T16:13:18.885Z,5.70
2018-12-25T16:15:51.171Z,5.60
2018-12-25T16:18:22.535Z,5.60
2018-12-25T16:20:53.915Z,5.60
2018-12-25T16:23:25.259Z,5.60
2018-12-25T16:25:56.627Z,5.50
2018-12-25T16:28:27.913Z,5.50
2018-12-25T16:30:59.198Z,5.50
2018-12-25T16:33:30.446Z,5.50
2018-12-25T16:36:01.770Z,5.50
2018-12-25T16:38:33.104Z,5.40
2018-12-25T16:41:04.353Z,5.40
2018-12-25T16:43:35.653Z,5.40
2018-12-25T16:46:07.749Z,5.40
2018-12-25T16:48:39.092Z,5.40
2018-12-25T16:51:10.218Z,5.40
2018-12-25T16:53:41.992Z,5.40
2018-12-25T16:56:13.335Z,5.30
2018-12-25T16:58:44.573Z,5.40
2018-12-25T17:01:15.809Z,5.30
2018-12-25T17:03:49.424Z,5.30
2018-12-25T17:06:20.502Z,5.30
2018-12-25T17:08:51.939Z,5.30
2018-12-25T17:11:23.247Z,5.30
2018-12-25T17:13:55.184Z,5.30
2018-12-25T17:16:26.531Z,5.20
2018-12-25T17:19:00.086Z,5.20
2018-12-25T17:21:31.438Z,5.20
2018-12-25T17:24:02.784Z,5.20
2018-12-25T17:26:34.122Z,5.10
2018-12-25T17:29:05.364Z,5.10
2018-12-25T17:31:36.803Z,5.10
2018-12-25T17:34:08.104Z,5.10
2018-12-25T17:36:39.419Z,5.10
2018-12-25T17:39:10.779Z,5.10
2018-12-25T17:41:42.361Z,5.00
2018-12-25T17:44:13.750Z,5.00
2018-12-25T17:46:45.798Z,4.90
2018-12-25T17:49:17.033Z,5.00
2018-12-25T17:51:49.214Z,5.00
2018-12-25T17:54:20.646Z,5.10
2018-12-25T17:56:51.938Z,5.10
2018-12-25T17:59:23.469Z,5.10
2018-12-25T18:01:54.871Z,5.10
2018-12-25T18:04:26.565Z,5.20
2018-12-25T18:06:57.807Z,5.20
2018-12-25T18:09:29.025Z,5.20
2018-12-25T18:12:00.371Z,5.20
2018-12-25T18:14:31.767Z,5.40
2018-12-25T18:17:03.143Z,5.40
2018-12-25T18:19:34.602Z,5.40
2018-12-25T18:22:05.841Z,5.30
2018-12-25T18:24:37.594Z,5.30
2018-12-25T18:27:08.826Z,5.30
2018-12-25T18:29:40.209Z,5.30
2018-12-25T18:32:11.537Z,5.30
2018-12-25T18:34:42.861Z,5.30
2018-12-25T18:37:14.127Z,5.30
2018-12-25T18:39:56.735Z,5.20
2018-12-25T18:42:28.006Z,5.10
2018-12-25T18:44:59.380Z,5.10
2018-12-25T18:47:31.915Z,5.10
2018-12-25T18:50:03.170Z,5.00
2018-12-25T18:52:34.610Z,5.00
2018-12-25T18:55:07.249Z,4.90
2018-12-25T18:57:38.600Z,4.90
2018-12-25T19:00:11.480Z,4.80
2018-12-25T19:02:42.791Z,4.80
2018-12-25T19:05:14.219Z,4.80
2018-12-25T19:07:45.497Z,4.80
2018-12-25T19:10:17.891Z,4.80
2018-12-25T19:12:49.180Z,4.70
2018-12-25T19:15:31.332Z,4.70
2018-12-25T19:18:03.201Z,4.70
2018-12-25T19:20:35.061Z,4.70
2018-12-25T19:23:06.367Z,4.70
2018-12-25T19:25:37.654Z,4.70
2018-12-25T19:28:08.960Z,4.70
2018-12-25T19:30:41.618Z,4.60
2018-12-25T19:33:13.021Z,4.60
2018-12-25T19:35:47.463Z,4.60
2018-12-25T19:38:21.537Z,4.60
2018-12-25T19:40:52.815Z,4.60
2018-12-25T19:43:24.204Z,4.60
2018-12-25T19:45:55.588Z,4.50
2018-12-25T19:48:27.615Z,4.50
2018-12-25T19:50:58.989Z,4.50
2018-12-25T19:53:30.312Z,4.50
2018-12-25T19:56:01.777Z,4.40
2018-12-25T19:58:33.180Z,4.30
2018-12-25T20:01:07.023Z,4.30
2018-12-25T20:03:54.324Z,4.20
2018-12-25T20:07:09.730Z,4.20
2018-12-25T20:10:32.865Z,4.20
2018-12-25T20:14:03.599Z,4.10
2018-12-25T20:17:20.455Z,4.10
2018-12-25T20:20:47.700Z,4.10
2018-12-25T20:23:55.470Z,4.00
2018-12-25T20:27:09.130Z,4.00
2018-12-25T20:30:08.337Z,3.90
2018-12-25T20:33:22.930Z,3.80
2018-12-25T20:36:35.178Z,3.80
2018-12-25T20:39:42.324Z,3.80
2018-12-25T20:42:57.966Z,3.70
2018-12-25T20:46:26.560Z,3.70
2018-12-25T20:49:37.107Z,3.60
2018-12-25T20:52:38.366Z,3.50
2018-12-25T20:55:50.809Z,3.40
2018-12-25T20:59:01.523Z,3.40
2018-12-25T21:02:09.424Z,3.30
2018-12-25T21:05:34.744Z,3.30
2018-12-25T21:08:49.134Z,3.20
2018-12-25T21:12:01.189Z,3.20
2018-12-25T21:15:14.553Z,3.10
2018-12-25T21:18:23.232Z,3.10
2018-12-25T21:21:32.185Z,3.00
2018-12-25T21:27:44.314Z,3.00
2018-12-25T21:30:15.974Z,2.90
2018-12-25T21:32:47.359Z,2.90
2018-12-25T21:35:24.038Z,2.80
2018-12-25T21:37:57.547Z,2.80
2018-12-25T21:40:29.273Z,2.80
2018-12-25T21:43:02.233Z,2.70
2018-12-25T21:45:33.504Z,2.60
2018-12-25T21:48:07.412Z,2.60
2018-12-25T21:50:42.603Z,2.50
2018-12-25T21:53:14.303Z,2.50
2018-12-25T21:55:46.977Z,2.50
2018-12-25T21:58:18.768Z,2.50
2018-12-25T22:00:51.656Z,2.50
2018-12-25T22:03:23.044Z,2.40
2018-12-25T22:05:55.710Z,2.40
2018-12-25T22:08:28.138Z,2.40
2018-12-25T22:10:59.831Z,2.30
2018-12-25T22:13:31.724Z,2.30
2018-12-25T22:16:04.556Z,2.20
2018-12-25T22:18:36.295Z,2.20
2018-12-25T22:21:13.884Z,2.20
2018-12-25T22:23:45.414Z,2.20
2018-12-25T22:26:16.784Z,2.20
2018-12-25T23:49:58.427Z,1.10
2018-12-25T23:52:29.661Z,1.20
2018-12-25T23:55:01.141Z,1.10
2018-12-25T23:57:32.353Z,1.10
